Time;durP1;ratioP1;P1;durP2;ratioP2;P2;SDS_P1;SDS_P2;PMS_P1;PMS_P2;Temp;Humidity;BMP_temperature;BMP_pressure;BME280_temperature;BME280_humidity;BME280_pressure;Samples;Min_cycle;Max_cycle;Signal;HPM_P1;HPM_P2
2023/01/29 00:01:52;;;;;;;54.25;22.58;;;;;;;5.58;60.51;94866.31;4997082;28;20081;-80
2023/01/29 00:04:17;;;;;;;57.72;23.65;;;;;;;5.24;61.58;94859.00;4995854;28;20033;-80
2023/01/29 00:06:43;;;;;;;55.08;23.63;;;;;;;5.47;60.90;94862.69;4995692;28;20039;-80
2023/01/29 00:09:09;;;;;;;51.45;21.88;;;;;;;5.77;60.43;94866.22;4995886;28;20030;-80
2023/01/29 00:11:35;;;;;;;50.45;22.00;;;;;;;5.69;60.22;94859.53;4995777;28;20086;-80
2023/01/29 00:14:00;;;;;;;51.35;21.00;;;;;;;5.63;59.96;94863.06;4996018;28;20065;-80
2023/01/29 00:16:26;;;;;;;51.08;20.63;;;;;;;5.86;60.00;94864.09;4979608;28;20030;-80
2023/01/29 00:18:51;;;;;;;50.80;20.17;;;;;;;5.83;59.07;94861.94;4979397;28;20121;-80
2023/01/29 00:21:19;;;;;;;49.72;20.20;;;;;;;5.95;60.29;94862.75;4995756;28;20026;-80
2023/01/29 00:23:45;;;;;;;51.88;20.25;;;;;;;6.17;58.89;94864.81;4995678;28;20027;-80
2023/01/29 00:26:10;;;;;;;47.53;19.70;;;;;;;6.14;58.19;94860.06;4979337;28;20530;-80
2023/01/29 00:28:36;;;;;;;50.83;20.80;;;;;;;5.94;58.56;94864.53;4995839;28;20325;-80
2023/01/29 00:31:15;;;;;;;47.75;20.30;;;;;;;6.33;58.77;94864.13;4995598;28;20058;-81
2023/01/29 00:33:41;;;;;;;49.50;20.65;;;;;;;5.90;59.11;94860.81;4995712;28;20054;-80
2023/01/29 00:36:08;;;;;;;49.03;20.35;;;;;;;6.18;58.61;94862.00;4995547;28;20073;-80
2023/01/29 00:38:34;;;;;;;47.42;20.63;;;;;;;6.00;59.09;94864.69;4995470;28;20038;-80
2023/01/29 00:46:42;;;;;;;46.08;18.90;;;;;;;6.00;58.58;94865.44;4995669;28;20049;-80
2023/01/29 00:49:08;;;;;;;44.90;18.40;;;;;;;6.16;58.39;94864.03;4996422;28;20340;-80
2023/01/29 00:51:34;;;;;;;47.13;20.42;;;;;;;5.84;60.46;94868.72;4998581;28;20457;-80
2023/01/29 00:54:03;;;;;;;49.47;21.20;;;;;;;6.11;59.11;94866.53;4999212;28;20114;-81
2023/01/29 00:56:29;;;;;;;53.80;22.23;;;;;;;6.01;61.32;94868.84;4983123;28;20054;-81
2023/01/29 00:58:55;;;;;;;46.38;20.92;;;;;;;6.00;60.89;94875.09;4998802;28;20030;-81
2023/01/29 01:04:08;;;;;;;41.33;18.48;;;;;;;6.03;59.95;94867.66;4998942;28;20474;-80
2023/01/29 01:06:39;;;;;;;45.13;19.23;;;;;;;6.06;61.17;94864.59;4966654;28;20394;-80
2023/01/29 01:11:50;;;;;;;47.45;19.10;;;;;;;5.77;59.69;94856.63;4998763;28;20120;-81
2023/01/29 01:14:16;;;;;;;42.63;16.98;;;;;;;6.27;58.81;94848.66;4998640;28;20030;-80
2023/01/29 01:16:42;;;;;;;46.33;19.13;;;;;;;5.64;60.65;94851.63;4982395;28;20060;-80
2023/01/29 01:19:08;;;;;;;45.83;18.70;;;;;;;5.58;60.71;94852.50;4982065;28;20038;-80
2023/01/29 01:21:34;;;;;;;42.20;17.77;;;;;;;5.87;59.92;94855.25;4998640;28;20034;-81
2023/01/29 01:24:00;;;;;;;49.47;20.25;;;;;;;5.56;60.32;94864.94;4999513;28;20030;-80
2023/01/29 01:26:26;;;;;;;43.72;18.95;;;;;;;5.69;60.42;94861.38;4998446;28;20439;-81
2023/01/29 01:28:51;;;;;;;52.45;21.02;;;;;;;5.48;61.20;94858.25;4982373;28;20038;-81
2023/01/29 01:31:17;;;;;;;50.00;21.77;;;;;;;5.42;61.87;94869.56;4998181;28;20042;-81
2023/01/29 01:33:43;;;;;;;51.20;21.05;;;;;;;5.69;60.82;94872.53;4998419;28;20359;-81
2023/01/29 01:36:08;;;;;;;48.53;19.83;;;;;;;5.85;61.10;94873.72;4997800;28;20026;-80
2023/01/29 01:38:43;;;;;;;47.67;19.20;;;;;;;6.32;59.93;94870.38;4982144;28;20030;-80
2023/01/29 01:41:13;;;;;;;41.85;18.05;;;;;;;6.54;59.79;94882.00;4998528;28;20378;-80
2023/01/29 01:43:54;;;;;;;45.83;19.17;;;;;;;6.68;59.83;94880.75;4998032;28;20032;-80
2023/01/29 01:46:20;;;;;;;43.65;18.02;;;;;;;6.31;61.56;94878.38;4997978;28;20408;-80
2023/01/29 01:48:50;;;;;;;42.45;18.75;;;;;;;6.32;60.51;94878.19;4998202;28;20169;-80
2023/01/29 01:51:26;;;;;;;45.80;19.02;;;;;;;6.29;61.44;94889.00;4997766;28;20034;-81
2023/01/29 01:54:01;;;;;;;45.78;18.73;;;;;;;6.18;62.63;94887.22;4997228;28;20049;-80
2023/01/29 01:56:43;;;;;;;45.72;18.55;;;;;;;6.34;62.60;94894.34;4981932;28;20471;-80
2023/01/29 01:59:10;;;;;;;42.78;17.90;;;;;;;6.54;61.75;94901.00;4983247;28;20041;-81
2023/01/29 02:01:39;;;;;;;46.35;19.15;;;;;;;6.56;60.72;94893.75;4996526;28;20033;-80
2023/01/29 02:09:46;;;;;;;47.88;19.23;;;;;;;5.97;62.55;94891.91;4997797;28;20041;-80
2023/01/29 02:12:13;;;;;;;41.88;18.38;;;;;;;6.36;61.62;94883.69;4981469;28;20061;-81
2023/01/29 02:14:40;;;;;;;45.45;19.13;;;;;;;6.46;61.32;94888.34;4997313;28;20030;-81
2023/01/29 02:17:07;;;;;;;49.92;19.70;;;;;;;6.30;61.10;94887.22;4981047;28;20041;-80
2023/01/29 02:20:02;;;;;;;51.28;20.75;;;;;;;5.75;62.02;94892.47;4997369;28;20563;-81
2023/01/29 02:23:03;;;;;;;47.95;20.48;;;;;;;6.02;62.59;94892.06;4976718;28;20034;-81
2023/01/29 02:25:51;;;;;;;46.28;20.02;;;;;;;6.22;61.33;94883.16;4981350;28;20035;-81
2023/01/29 02:28:31;;;;;;;47.38;19.95;;;;;;;6.06;61.76;94887.22;4998332;28;20030;-80
2023/01/29 02:31:19;;;;;;;53.30;21.10;;;;;;;5.78;62.61;94881.63;4997262;28;20041;-80
2023/01/29 02:33:50;;;;;;;48.88;21.75;;;;;;;5.32;64.02;94876.06;4981135;28;20502;-80
2023/01/29 02:36:37;;;;;;;53.13;21.77;;;;;;;5.55;63.42;94889.34;4998097;28;20033;-80
2023/01/29 02:39:34;;;;;;;56.75;22.52;;;;;;;5.34;65.29;94891.44;4997056;28;20030;-80
2023/01/29 02:42:26;;;;;;;59.50;23.77;;;;;;;5.33;64.85;94892.47;4998115;28;20034;-80
2023/01/29 02:45:13;;;;;;;58.22;23.48;;;;;;;5.03;66.13;94895.84;4980947;28;20030;-80
2023/01/29 02:47:53;;;;;;;59.80;24.25;;;;;;;5.17;65.37;94894.66;4980657;28;20383;-80
2023/01/29 02:50:32;;;;;;;56.85;22.83;;;;;;;5.23;66.03;94892.97;4998066;28;20347;-80
2023/01/29 02:53:02;;;;;;;56.85;23.13;;;;;;;5.25;65.12;94890.97;4983518;28;20042;-80
2023/01/29 02:55:44;;;;;;;52.92;23.08;;;;;;;5.36;63.93;94895.41;4996604;28;20049;-80
2023/01/29 02:58:19;;;;;;;56.67;24.07;;;;;;;4.67;66.21;94899.03;4996531;28;20517;-80
2023/01/29 03:00:47;;;;;;;63.03;22.33;;;;;;;5.12;65.86;94891.91;4997609;28;20041;-80
2023/01/29 03:03:29;;;;;;;50.13;22.23;;;;;;;5.24;64.68;94887.56;4996447;28;20435;-80
2023/01/29 03:05:58;;;;;;;55.55;22.40;;;;;;;4.98;66.25;94896.50;4992281;28;20030;-80
2023/01/29 03:09:00;;;;;;;52.60;21.63;;;;;;;5.26;64.52;94887.34;4996486;28;20121;-81
2023/01/29 03:11:34;;;;;;;47.80;20.77;;;;;;;5.03;65.47;94899.22;4980244;28;20090;-81
2023/01/29 03:14:07;;;;;;;51.13;21.50;;;;;;;4.92;66.49;94900.75;4980506;28;20030;-80
2023/01/29 03:16:34;;;;;;;53.50;21.98;;;;;;;4.71;66.38;94904.59;4997426;28;20061;-80
2023/01/29 03:19:15;;;;;;;50.78;21.08;;;;;;;4.94;65.07;94906.53;4980702;28;20084;-80
2023/01/29 03:21:50;;;;;;;54.50;20.88;;;;;;;4.76;66.03;94904.72;4996408;28;20030;-80
2023/01/29 03:32:39;;;;;;;66.18;24.67;;;;;;;4.49;66.48;94904.22;4976849;28;20125;-80
2023/01/29 03:35:06;;;;;;;57.40;22.77;;;;;;;4.59;67.40;94914.09;4977919;28;20026;-80
2023/01/29 03:37:39;;;;;;;66.65;25.70;;;;;;;4.07;71.53;94905.59;4960401;28;20448;-80
2023/01/29 03:40:05;;;;;;;;;;;;;;;4.55;70.11;94907.75;4977438;28;20022;-80
2023/01/29 03:42:39;;;;;;;64.13;23.60;;;;;;;4.14;70.37;94902.94;4960438;28;20231;-80
2023/01/29 03:45:18;;;;;;;58.22;23.00;;;;;;;4.69;67.00;94898.00;4977782;28;20030;-80
2023/01/29 03:47:57;;;;;;;65.45;25.30;;;;;;;4.41;70.15;94901.91;4978243;28;20034;-80
2023/01/29 03:50:35;;;;;;;70.50;26.38;;;;;;;4.14;71.89;94913.31;4977756;28;20034;-80
2023/01/29 03:53:38;;;;;;;67.65;24.65;;;;;;;4.49;69.18;94905.00;4976724;28;20062;-80
2023/01/29 03:56:14;;;;;;;65.28;26.02;;;;;;;4.47;67.09;94906.25;4977829;28;20030;-80
2023/01/29 03:59:03;;;;;;;67.53;25.63;;;;;;;4.05;68.73;94907.59;4976775;28;20125;-80
2023/01/29 04:01:37;;;;;;;72.07;25.45;;;;;;;3.99;71.29;94908.44;4960977;28;20309;-80
2023/01/29 04:04:23;;;;;;;67.70;26.65;;;;;;;3.43;74.11;94900.44;4976536;28;20038;-80
2023/01/29 04:06:52;;;;;;;71.50;27.30;;;;;;;3.59;74.86;94900.97;4976583;28;20034;-80
2023/01/29 04:09:22;;;;;;;66.25;25.52;;;;;;;3.15;76.37;94898.22;4976458;28;20117;-80
2023/01/29 04:11:56;;;;;;;69.05;26.15;;;;;;;3.37;77.69;94906.47;4976550;28;20089;-80
2023/01/29 04:14:22;;;;;;;77.88;29.60;;;;;;;2.08;81.69;94898.31;4960400;28;20031;-80
2023/01/29 04:16:51;;;;;;;70.75;26.50;;;;;;;2.01;92.20;94891.56;4960075;28;20031;-80
2023/01/29 04:19:16;;;;;;;71.25;27.00;;;;;;;2.57;88.46;94898.03;4960400;28;20027;-80
2023/01/29 04:21:42;;;;;;;74.47;28.60;;;;;;;2.67;85.71;94900.22;4976375;28;20093;-80
2023/01/29 04:24:09;;;;;;;67.32;27.20;;;;;;;3.19;84.65;94899.41;4977736;28;20035;-80
2023/01/29 04:26:59;;;;;;;70.88;26.42;;;;;;;3.72;76.77;94910.44;4963625;28;20344;-80
2023/01/29 04:29:45;;;;;;;63.15;24.85;;;;;;;3.46;79.77;94901.84;4981252;28;20086;-80
2023/01/29 04:32:26;;;;;;;57.03;21.67;;;;;;;3.62;79.82;94895.38;4964140;28;20042;-80
2023/01/29 04:35:07;;;;;;;61.80;22.25;;;;;;;4.09;77.66;94893.19;4981143;28;20030;-80
2023/01/29 04:37:46;;;;;;;62.22;21.70;;;;;;;4.26;77.33;94903.03;4980944;28;20125;-80
2023/01/29 04:40:39;;;;;;;63.53;22.58;;;;;;;4.45;76.20;94903.06;4979877;28;20031;-80
2023/01/29 04:43:21;;;;;;;53.40;20.75;;;;;;;4.49;74.67;94901.63;4967573;28;20051;-80
2023/01/29 04:46:04;;;;;;;59.13;22.15;;;;;;;4.41;74.04;94910.47;4947728;28;20038;-80
2023/01/29 04:48:39;;;;;;;56.53;20.85;;;;;;;4.30;73.38;94917.16;4980868;28;20432;-80
2023/01/29 04:51:14;;;;;;;55.40;21.05;;;;;;;3.23;77.79;94909.13;4980759;28;20035;-80
2023/01/29 04:53:54;;;;;;;54.63;22.17;;;;;;;3.79;79.00;94912.00;4979710;28;20031;-80
2023/01/29 04:56:41;;;;;;;54.95;20.52;;;;;;;3.96;73.34;94914.06;4980627;28;20042;-80
2023/01/29 04:59:11;;;;;;;58.65;22.70;;;;;;;3.96;77.18;94914.84;4979242;28;20041;-80
2023/01/29 05:01:37;;;;;;;59.40;22.48;;;;;;;3.92;74.75;94918.09;4979454;28;20050;-80
2023/01/29 05:04:12;;;;;;;58.13;22.33;;;;;;;4.00;72.82;94911.84;4998603;28;20092;-80
2023/01/29 05:06:39;;;;;;;59.92;23.35;;;;;;;3.62;76.86;94910.91;4998221;28;20030;-80
2023/01/29 05:09:07;;;;;;;58.90;22.65;;;;;;;3.80;74.76;94910.16;4978795;28;20042;-80
2023/01/29 05:11:34;;;;;;;59.78;22.85;;;;;;;3.77;75.16;94919.19;4998428;28;20431;-80
2023/01/29 05:14:01;;;;;;;57.80;20.52;;;;;;;3.81;74.82;94922.94;4998601;28;20069;-80
2023/01/29 05:16:29;;;;;;;53.20;19.38;;;;;;;3.78;75.01;94923.38;4998365;28;20030;-80
2023/01/29 05:18:55;;;;;;;51.30;20.48;;;;;;;3.62;76.13;94914.28;4998505;28;20073;-80
2023/01/29 05:21:22;;;;;;;64.35;24.13;;;;;;;3.68;74.40;94925.63;4998423;28;20432;-80
2023/01/29 05:24:07;;;;;;;58.92;20.63;;;;;;;4.02;77.13;94933.97;4982608;28;20065;-80
2023/01/29 05:29:17;;;;;;;57.00;21.20;;;;;;;3.27;79.71;94934.63;4998596;28;20134;-80
2023/01/29 05:31:43;;;;;;;52.97;20.20;;;;;;;3.51;77.90;94933.91;4999367;28;20117;-80
2023/01/29 05:34:09;;;;;;;55.80;21.05;;;;;;;3.41;79.41;94936.13;4982070;28;20439;-80
2023/01/29 05:36:35;;;;;;;56.38;21.23;;;;;;;3.72;78.48;94937.13;4999284;28;20320;-80
2023/01/29 05:39:01;;;;;;;59.30;21.45;;;;;;;3.51;79.35;94946.84;4998132;28;20029;-80
2023/01/29 05:41:26;;;;;;;60.72;21.83;;;;;;;3.58;78.78;94951.19;4998167;28;20030;-80
2023/01/29 05:43:52;;;;;;;54.95;20.20;;;;;;;3.58;77.40;94949.41;4998170;28;20038;-80
2023/01/29 05:46:17;;;;;;;51.63;20.77;;;;;;;3.68;75.68;94948.94;4999044;28;20454;-80
2023/01/29 05:48:43;;;;;;;51.15;19.90;;;;;;;2.92;84.10;94939.16;4998087;28;20356;-80
2023/01/29 05:51:08;;;;;;;49.35;19.17;;;;;;;3.55;81.35;94947.22;4997824;28;20035;-80
2023/01/29 05:53:34;;;;;;;45.97;18.23;;;;;;;3.32;80.39;94951.13;4998056;28;20030;-80
2023/01/29 05:56:00;;;;;;;52.30;18.80;;;;;;;3.64;81.38;94945.19;4999207;28;20030;-80
2023/01/29 05:58:26;;;;;;;48.60;17.95;;;;;;;3.63;76.99;94951.38;4997781;28;20088;-80
2023/01/29 06:00:51;;;;;;;51.80;19.17;;;;;;;3.63;75.82;94957.34;4997660;28;20038;-80
2023/01/29 06:03:18;;;;;;;60.13;21.23;;;;;;;3.42;76.83;94966.22;4981696;28;20420;-80
2023/01/29 06:05:43;;;;;;;52.38;18.98;;;;;;;3.51;75.90;94962.41;4997451;28;20030;-80
2023/01/29 06:08:09;;;;;;;51.28;20.42;;;;;;;3.27;79.54;94958.72;4981171;28;20045;-80
2023/01/29 06:10:35;;;;;;;46.75;18.58;;;;;;;3.48;75.74;94968.00;4981784;28;20088;-80
2023/01/29 06:13:02;;;;;;;48.58;18.42;;;;;;;3.23;78.08;94970.50;4997737;28;20034;-80
2023/01/29 06:15:27;;;;;;;51.63;18.85;;;;;;;3.36;76.90;94967.06;4998675;28;20030;-80
2023/01/29 06:17:53;;;;;;;47.67;17.80;;;;;;;3.51;78.75;94971.94;4998455;28;20031;-80
2023/01/29 06:20:19;;;;;;;60.63;21.20;;;;;;;3.36;82.19;94974.81;4981337;28;20041;-80
2023/01/29 06:22:48;;;;;;;53.58;20.60;;;;;;;3.42;81.60;94978.38;4981004;28;20026;-80
2023/01/29 06:25:14;;;;;;;51.55;18.23;;;;;;;3.43;74.17;94980.75;4998504;28;20438;-80
2023/01/29 06:27:41;;;;;;;63.67;19.80;;;;;;;3.55;79.08;94978.31;4997501;28;20034;-80
2023/01/29 06:30:07;;;;;;;57.00;19.70;;;;;;;3.59;79.62;94976.13;4980787;28;20042;-80
2023/01/29 06:32:33;;;;;;;55.00;18.48;;;;;;;3.71;79.08;94976.25;4996959;28;20144;-83
2023/01/29 06:34:58;;;;;;;50.67;18.77;;;;;;;3.76;77.20;94979.00;4996552;28;20447;-79
2023/01/29 06:37:24;;;;;;;49.03;18.15;;;;;;;3.74;76.17;94979.22;4997024;28;20383;-79
2023/01/29 06:39:50;;;;;;;45.63;18.20;;;;;;;3.63;76.20;94978.06;4998157;28;20045;-79
2023/01/29 06:42:15;;;;;;;47.95;18.15;;;;;;;3.77;77.23;94988.34;4980793;28;20347;-79
2023/01/29 06:44:41;;;;;;;45.13;18.67;;;;;;;3.80;76.27;94991.34;4997221;28;20391;-79
2023/01/29 06:47:07;;;;;;;45.13;18.40;;;;;;;3.82;75.61;94988.53;4996457;28;20351;-79
2023/01/29 06:49:32;;;;;;;48.22;16.48;;;;;;;3.79;75.84;94988.94;4998063;28;20034;-80
2023/01/29 06:51:58;;;;;;;42.60;16.13;;;;;;;3.72;74.93;94986.38;4996730;28;20076;-80
2023/01/29 06:54:23;;;;;;;39.90;15.95;;;;;;;3.89;76.33;94993.69;4980513;28;20034;-80
2023/01/29 06:56:50;;;;;;;36.95;14.02;;;;;;;4.14;74.01;94992.91;4996832;28;20031;-80
2023/01/29 06:59:16;;;;;;;38.15;15.10;;;;;;;4.02;72.38;94992.78;4996462;28;20052;-80
2023/01/29 07:01:43;;;;;;;43.63;15.15;;;;;;;4.01;73.81;94999.75;4997732;28;20019;-80
2023/01/29 07:04:09;;;;;;;35.60;13.73;;;;;;;4.14;72.94;95000.69;4980361;28;20121;-80
2023/01/29 07:06:35;;;;;;;30.08;11.63;;;;;;;4.42;72.42;95012.44;4996645;28;20057;-80
2023/01/29 07:09:04;;;;;;;32.00;11.65;;;;;;;4.44;69.35;95010.44;4980497;28;20054;-80
2023/01/29 07:11:30;;;;;;;28.58;10.88;;;;;;;4.62;71.15;95014.88;4980125;28;20034;-80
2023/01/29 07:13:56;;;;;;;30.08;11.05;;;;;;;4.62;71.03;95020.88;4996674;28;20034;-80
2023/01/29 07:16:23;;;;;;;29.58;11.75;;;;;;;4.69;69.72;95020.00;4996185;28;20034;-80
2023/01/29 07:18:48;;;;;;;28.08;11.38;;;;;;;4.63;70.36;95026.84;4996119;28;20124;-80
2023/01/29 07:21:14;;;;;;;28.08;11.43;;;;;;;5.02;71.24;95031.88;4980395;28;20404;-80
2023/01/29 07:23:39;;;;;;;34.53;13.73;;;;;;;5.00;70.68;95020.91;4996379;28;20030;-80
2023/01/29 07:26:05;;;;;;;32.65;13.68;;;;;;;5.19;70.06;95024.31;4996119;28;20474;-80
2023/01/29 07:28:31;;;;;;;31.98;12.90;;;;;;;5.14;69.28;95016.41;4980260;28;20435;-80
2023/01/29 07:30:59;;;;;;;36.55;14.40;;;;;;;5.45;70.10;95017.25;4980071;28;20439;-79
2023/01/29 07:33:25;;;;;;;39.50;15.20;;;;;;;5.09;68.67;95033.44;4980780;28;20331;-79
2023/01/29 07:35:52;;;;;;;35.47;15.20;;;;;;;5.11;68.14;95030.59;4995914;28;20033;-79
2023/01/29 07:38:18;;;;;;;39.45;14.60;;;;;;;5.31;69.18;95029.59;4980535;28;20022;-79
2023/01/29 07:40:43;;;;;;;29.90;11.73;;;;;;;5.33;68.70;95028.34;4980130;28;20040;-79
2023/01/29 07:43:09;;;;;;;29.65;12.07;;;;;;;5.45;67.11;95033.66;4977010;28;20042;-79
2023/01/29 07:45:36;;;;;;;27.98;11.95;;;;;;;5.67;68.44;95043.56;4976610;28;20034;-79
2023/01/29 07:48:03;;;;;;;28.08;11.93;;;;;;;5.64;66.24;95044.78;4983776;28;20064;-79
2023/01/29 07:50:30;;;;;;;29.92;12.27;;;;;;;5.86;68.13;95046.13;4980411;28;20026;-79
2023/01/29 07:52:58;;;;;;;32.88;13.80;;;;;;;5.98;67.61;95046.19;4979765;28;20332;-79
2023/01/29 07:55:24;;;;;;;36.35;14.15;;;;;;;6.05;66.66;95049.50;4996300;28;20386;-79
2023/01/29 07:58:01;;;;;;;32.05;12.38;;;;;;;6.18;66.25;95048.56;4995888;28;20026;-80
2023/01/29 08:00:27;;;;;;;27.02;12.20;;;;;;;5.89;65.36;95056.13;4982973;28;20038;-80
2023/01/29 08:02:52;;;;;;;29.02;12.65;;;;;;;5.92;66.29;95056.44;5000801;28;20034;-80
2023/01/29 08:05:21;;;;;;;33.03;12.73;;;;;;;6.30;66.02;95053.78;5000959;28;20038;-82
2023/01/29 08:07:53;;;;;;;32.55;13.05;;;;;;;6.39;65.42;95049.84;4999787;28;20022;-81
2023/01/29 08:10:18;;;;;;;27.58;12.05;;;;;;;6.32;65.31;95054.34;4999879;28;20072;-81
2023/01/29 08:12:44;;;;;;;32.40;13.50;;;;;;;6.40;65.11;95058.44;4999802;28;20358;-82
2023/01/29 08:15:11;;;;;;;49.83;20.70;;;;;;;6.57;64.77;95061.19;4999675;28;20026;-81
2023/01/29 08:17:38;;;;;;;94.30;40.65;;;;;;;6.65;64.88;95064.25;4984009;28;20080;-82
2023/01/29 08:20:06;;;;;;;44.53;19.38;;;;;;;6.79;64.43;95071.84;4983700;28;20038;-82
2023/01/29 08:22:31;;;;;;;52.90;23.67;;;;;;;6.76;64.23;95062.66;5000779;28;20109;-82
2023/01/29 08:24:56;;;;;;;63.95;23.42;;;;;;;6.90;64.25;95071.06;4983769;28;20511;-82
2023/01/29 08:27:22;;;;;;;38.00;15.60;;;;;;;7.03;63.70;95074.44;4983344;28;20030;-81
2023/01/29 08:29:47;;;;;;;167.43;70.32;;;;;;;7.15;63.18;95077.84;4999278;28;20070;-82
2023/01/29 08:32:13;;;;;;;202.27;85.53;;;;;;;7.33;63.25;95081.38;4999352;28;20030;-81
2023/01/29 08:34:39;;;;;;;121.15;49.95;;;;;;;7.41;63.29;95086.22;4999348;28;20034;-81
2023/01/29 08:37:04;;;;;;;132.35;56.30;;;;;;;7.55;63.04;95089.38;4999144;28;20033;-81
2023/01/29 08:39:30;;;;;;;84.18;34.95;;;;;;;7.60;62.47;95099.91;4999298;28;20038;-82
2023/01/29 08:41:56;;;;;;;87.80;37.22;;;;;;;7.62;62.16;95094.47;5000423;28;20073;-81
2023/01/29 08:44:21;;;;;;;105.18;43.00;;;;;;;7.70;62.01;95101.91;4998983;28;20041;-81
2023/01/29 08:46:47;;;;;;;58.08;26.13;;;;;;;7.78;61.48;95098.97;4998977;28;20027;-82
2023/01/29 08:49:13;;;;;;;34.70;14.35;;;;;;;7.85;60.92;95101.44;4982709;28;20050;-81
2023/01/29 08:51:38;;;;;;;28.42;11.57;;;;;;;7.49;58.25;95104.13;5000141;28;20031;-82
2023/01/29 08:54:04;;;;;;;32.13;12.85;;;;;;;7.50;59.25;95108.31;4999066;28;20030;-81
2023/01/29 08:56:29;;;;;;;37.80;15.95;;;;;;;7.77;59.78;95120.88;5000100;28;20026;-82
2023/01/29 08:58:55;;;;;;;28.27;12.15;;;;;;;7.89;59.68;95114.81;4982707;28;20486;-82
2023/01/29 09:01:20;;;;;;;31.88;14.30;;;;;;;7.96;59.22;95110.25;4982695;28;20038;-82
2023/01/29 09:03:46;;;;;;;34.20;14.77;;;;;;;8.03;57.91;95112.72;4998872;28;20034;-82
2023/01/29 09:06:13;;;;;;;11.63;5.30;;;;;;;7.77;55.87;95115.66;4998877;28;20026;-81
2023/01/29 09:08:41;;;;;;;13.77;6.07;;;;;;;7.98;54.55;95123.09;4989195;28;20109;-81
2023/01/29 09:11:06;;;;;;;14.57;6.28;;;;;;;7.78;52.78;95119.03;4978967;28;20325;-82
2023/01/29 09:13:34;;;;;;;21.52;8.65;;;;;;;8.33;54.32;95117.72;4980411;28;20082;-82
2023/01/29 09:16:01;;;;;;;27.45;17.27;;;;;;;8.44;53.73;95105.63;4979053;28;20035;-82
2023/01/29 09:18:27;;;;;;;14.38;6.13;;;;;;;7.10;55.40;95111.63;4979115;28;20118;-82
2023/01/29 09:20:53;;;;;;;13.77;5.25;;;;;;;7.40;55.01;95113.31;4978798;28;20033;-82
2023/01/29 09:23:18;;;;;;;22.55;8.07;;;;;;;8.27;53.80;95126.47;4963150;28;20019;-82
2023/01/29 09:25:44;;;;;;;14.60;5.40;;;;;;;8.18;52.87;95130.50;4978908;28;20026;-82
2023/01/29 09:28:09;;;;;;;12.93;6.22;;;;;;;8.05;52.94;95123.72;4978903;28;20089;-82
2023/01/29 09:30:36;;;;;;;15.25;6.40;;;;;;;7.49;53.49;95130.19;4978945;28;20046;-82
2023/01/29 09:33:06;;;;;;;11.63;5.05;;;;;;;7.83;53.93;95128.78;4978990;28;20073;-82
2023/01/29 09:35:31;;;;;;;41.00;25.92;;;;;;;8.24;53.89;95126.16;4992304;28;20022;-82
2023/01/29 09:37:57;;;;;;;22.40;12.15;;;;;;;8.64;52.53;95125.31;4997682;28;20033;-83
2023/01/29 09:40:27;;;;;;;45.08;25.75;;;;;;;8.60;51.56;95122.38;4981728;28;20064;-83
2023/01/29 09:43:21;;;;;;;21.40;10.57;;;;;;;8.11;51.58;95132.44;4978671;28;20027;-82
2023/01/29 09:46:00;;;;;;;;;;;;;;;7.53;52.14;95130.53;4969680;28;20133;-82
2023/01/29 09:48:29;;;;;;;15.73;6.28;;;;;;;7.83;53.58;95134.00;4978520;28;19961;-81
2023/01/29 09:50:57;;;;;;;20.17;10.02;;;;;;;8.37;52.51;95136.31;4962401;28;20452;-81
2023/01/29 09:53:38;;;;;;;15.30;6.60;;;;;;;8.14;52.20;95131.97;4982377;28;20366;-82
2023/01/29 09:56:27;;;;;;;28.27;15.30;;;;;;;8.75;52.04;95126.28;4997739;28;20838;-82
2023/01/29 09:58:56;;;;;;;20.02;9.15;;;;;;;8.96;50.79;95124.78;4998276;28;20097;-81
2023/01/29 10:01:37;;;;;;;47.03;23.75;;;;;;;9.28;51.03;95124.22;4997791;28;20045;-81
2023/01/29 10:04:02;;;;;;;21.58;10.98;;;;;;;8.97;52.38;95128.19;4981713;28;20037;-81
2023/01/29 10:06:57;;;;;;;37.10;19.30;;;;;;;8.84;50.92;95122.25;4997754;28;20030;-81
2023/01/29 10:09:55;;;;;;;11.60;5.82;;;;;;;8.77;48.99;95127.63;4970413;28;20038;-81
2023/01/29 10:12:40;;;;;;;15.32;6.05;;;;;;;7.85;51.69;95118.91;4944887;28;20042;-81
2023/01/29 10:15:37;;;;;;;11.93;6.65;;;;;;;9.34;50.08;95115.41;4998750;28;20026;-81
2023/01/29 10:18:33;;;;;;;12.20;5.85;;;;;;;9.22;48.46;95114.72;4981271;28;20030;-81
2023/01/29 10:21:42;;;;;;;17.30;8.32;;;;;;;9.24;49.48;95109.25;4998571;28;20105;-82
2023/01/29 10:24:15;;;;;;;29.17;11.77;;;;;;;8.75;50.04;95115.81;4970623;28;20033;-82
2023/01/29 10:26:41;;;;;;;348.98;146.15;;;;;;;8.85;50.84;95105.53;4997217;28;20026;-82
2023/01/29 10:29:07;;;;;;;168.77;68.30;;;;;;;9.22;49.57;95109.47;4998261;28;20482;-82
2023/01/29 10:31:42;;;;;;;41.13;16.02;;;;;;;9.10;48.80;95104.34;4996925;28;20045;-82
2023/01/29 10:34:14;;;;;;;16.75;7.60;;;;;;;8.49;50.51;95102.31;4997142;28;20107;-82
2023/01/29 10:36:43;;;;;;;521.13;171.90;;;;;;;9.21;50.57;95096.66;4998168;28;20026;-83
2023/01/29 10:39:19;;;;;;;477.30;147.73;;;;;;;9.34;49.49;95099.72;4997006;28;20462;-82
2023/01/29 10:42:02;;;;;;;142.88;42.45;;;;;;;9.66;48.17;95093.06;4997100;28;20398;-82
2023/01/29 10:44:46;;;;;;;273.48;81.97;;;;;;;9.37;49.19;95095.03;4998773;28;20046;-82
2023/01/29 10:47:22;;;;;;;61.13;20.35;;;;;;;9.76;48.53;95090.56;4998054;28;20038;-82
2023/01/29 10:50:01;;;;;;;114.28;38.03;;;;;;;8.68;50.71;95084.66;4996878;28;20034;-82
2023/01/29 10:52:39;;;;;;;292.00;93.68;;;;;;;9.30;49.46;95088.16;4996717;28;20116;-82
2023/01/29 10:55:13;;;;;;;18.80;7.88;;;;;;;9.26;48.39;95083.66;4996728;28;20443;-82
2023/01/29 10:57:53;;;;;;;22.58;8.68;;;;;;;9.69;47.49;95083.94;4996729;28;20033;-82
2023/01/29 11:00:24;;;;;;;60.33;25.90;;;;;;;9.48;49.13;95076.63;4980298;28;20129;-84
2023/01/29 11:02:50;;;;;;;27.33;12.45;;;;;;;9.96;47.79;95075.31;4996627;28;20045;-84
2023/01/29 11:05:27;;;;;;;145.07;67.35;;;;;;;9.70;47.47;95075.06;4996596;28;20118;-84
2023/01/29 11:08:01;;;;;;;55.80;28.98;;;;;;;9.70;47.47;95070.59;4964711;28;20447;-84
2023/01/29 11:10:29;;;;;;;18.52;9.55;;;;;;;9.48;48.70;95062.75;4997684;28;20033;-84
2023/01/29 11:12:55;;;;;;;41.08;21.33;;;;;;;9.36;48.44;95057.63;4996688;28;20065;-84
2023/01/29 11:15:30;;;;;;;49.00;27.48;;;;;;;9.79;48.06;95057.09;4980212;28;20053;-81
2023/01/29 11:18:09;;;;;;;16.20;7.72;;;;;;;8.84;48.43;95048.31;4996343;28;20042;-79
2023/01/29 11:20:34;;;;;;;14.23;6.80;;;;;;;8.37;49.70;95034.47;4981347;28;20121;-82
2023/01/29 11:23:00;;;;;;;19.30;8.32;;;;;;;9.02;49.16;95042.00;4980025;28;20129;-81
2023/01/29 11:25:27;;;;;;;20.48;9.98;;;;;;;9.21;48.28;95039.13;4996208;28;20428;-82
2023/01/29 11:27:59;;;;;;;14.88;7.10;;;;;;;9.29;48.83;95039.50;4997269;28;20502;-81
2023/01/29 11:30:39;;;;;;;13.95;7.03;;;;;;;9.61;49.16;95038.84;4996235;28;20033;-81
2023/01/29 11:33:11;;;;;;;15.95;7.35;;;;;;;10.11;48.23;95036.22;4995668;28;20346;-81
2023/01/29 11:35:36;;;;;;;16.65;7.75;;;;;;;10.23;46.43;95037.91;4995961;28;20342;-82
2023/01/29 11:38:06;;;;;;;13.85;6.88;;;;;;;10.80;47.12;95027.91;4996065;28;20026;-81
2023/01/29 11:40:40;;;;;;;16.98;6.85;;;;;;;10.41;47.59;95015.81;4996361;28;20129;-81
2023/01/29 11:43:44;;;;;;;19.83;8.18;;;;;;;9.18;47.42;95019.50;4996359;28;20027;-82
2023/01/29 11:46:12;;;;;;;;;;;;;;;9.89;46.78;95015.31;4892468;29;20033;-82
2023/01/29 11:48:50;;;;;;;14.10;7.20;;;;;;;9.48;46.26;95016.47;4865335;29;20002;-82
2023/01/29 11:51:27;;;;;;;16.75;7.68;;;;;;;9.59;46.25;95008.72;4911417;28;20356;-79
2023/01/29 11:53:58;;;;;;;17.77;7.53;;;;;;;9.65;46.41;95007.75;4976745;28;20352;-80
2023/01/29 11:56:41;;;;;;;14.88;7.40;;;;;;;10.50;45.80;94997.81;4960491;28;20023;-79
2023/01/29 11:59:32;;;;;;;14.93;7.07;;;;;;;8.64;47.13;94999.94;4961047;28;20030;-81
2023/01/29 12:02:18;;;;;;;15.50;7.32;;;;;;;9.49;46.32;94996.31;4976717;28;20027;-82
2023/01/29 12:04:44;;;;;;;17.80;7.70;;;;;;;9.83;45.41;94990.13;4977712;28;20448;-82
2023/01/29 12:07:15;;;;;;;17.58;8.45;;;;;;;9.98;44.98;94990.28;4959977;28;20066;-82
2023/01/29 12:09:40;;;;;;;17.45;7.50;;;;;;;9.76;44.96;94985.09;4960549;28;20347;-81
2023/01/29 12:12:17;;;;;;;16.00;7.20;;;;;;;8.54;46.55;94987.50;4960538;28;20035;-82
2023/01/29 12:14:43;;;;;;;14.88;7.63;;;;;;;9.23;45.88;94990.00;4960386;28;20031;-81